sensor_id;sensor_type;location;lat;lon;timestamp;P1;durP1;ratioP1;P2;durP2;ratioP2
24261;SDS011;12385;51.412;5.540;2022-10-31T00:00:57;20.45;;;11.23;;
24261;SDS011;12385;51.412;5.540;2022-10-31T00:03:23;24.23;;;12.23;;
24261;SDS011;12385;51.412;5.540;2022-10-31T00:05:49;23.38;;;11.18;;
24261;SDS011;12385;51.412;5.540;2022-10-31T00:08:15;18.25;;;11.27;;
24261;SDS011;12385;51.412;5.540;2022-10-31T00:10:42;24.75;;;11.98;;
24261;SDS011;12385;51.412;5.540;2022-10-31T00:13:09;26.70;;;12.43;;
24261;SDS011;12385;51.412;5.540;2022-10-31T00:15:39;28.30;;;13.52;;
24261;SDS011;12385;51.412;5.540;2022-10-31T00:18:05;24.90;;;12.80;;
24261;SDS011;12385;51.412;5.540;2022-10-31T00:20:32;19.40;;;10.90;;
24261;SDS011;12385;51.412;5.540;2022-10-31T00:22:58;20.80;;;11.27;;
24261;SDS011;12385;51.412;5.540;2022-10-31T00:25:25;20.25;;;10.65;;
24261;SDS011;12385;51.412;5.540;2022-10-31T00:27:51;24.23;;;10.93;;
24261;SDS011;12385;51.412;5.540;2022-10-31T00:30:20;20.70;;;10.20;;
24261;SDS011;12385;51.412;5.540;2022-10-31T00:32:46;15.10;;;10.13;;
24261;SDS011;12385;51.412;5.540;2022-10-31T00:35:11;23.63;;;11.27;;
24261;SDS011;12385;51.412;5.540;2022-10-31T00:37:37;21.05;;;11.23;;
24261;SDS011;12385;51.412;5.540;2022-10-31T00:40:03;22.85;;;11.45;;
24261;SDS011;12385;51.412;5.540;2022-10-31T00:42:28;21.45;;;10.60;;
24261;SDS011;12385;51.412;5.540;2022-10-31T00:44:54;21.38;;;9.90;;
24261;SDS011;12385;51.412;5.540;2022-10-31T00:47:19;20.35;;;11.20;;
24261;SDS011;12385;51.412;5.540;2022-10-31T00:49:45;21.38;;;10.82;;
24261;SDS011;12385;51.412;5.540;2022-10-31T00:52:11;24.27;;;11.68;;
24261;SDS011;12385;51.412;5.540;2022-10-31T00:54:36;26.55;;;12.35;;
24261;SDS011;12385;51.412;5.540;2022-10-31T00:57:02;21.70;;;12.30;;
24261;SDS011;12385;51.412;5.540;2022-10-31T00:59:28;23.67;;;12.57;;
24261;SDS011;12385;51.412;5.540;2022-10-31T01:01:53;21.92;;;12.57;;
24261;SDS011;12385;51.412;5.540;2022-10-31T01:04:19;24.38;;;11.93;;
24261;SDS011;12385;51.412;5.540;2022-10-31T01:06:44;23.02;;;12.50;;
24261;SDS011;12385;51.412;5.540;2022-10-31T01:09:10;22.75;;;12.43;;
24261;SDS011;12385;51.412;5.540;2022-10-31T01:11:35;26.67;;;11.07;;
24261;SDS011;12385;51.412;5.540;2022-10-31T01:14:01;15.43;;;9.20;;
24261;SDS011;12385;51.412;5.540;2022-10-31T01:16:27;19.35;;;10.40;;
24261;SDS011;12385;51.412;5.540;2022-10-31T01:18:54;17.98;;;10.63;;
24261;SDS011;12385;51.412;5.540;2022-10-31T01:21:24;19.60;;;9.65;;
24261;SDS011;12385;51.412;5.540;2022-10-31T01:23:55;16.58;;;9.07;;
24261;SDS011;12385;51.412;5.540;2022-10-31T01:26:22;19.40;;;10.75;;
24261;SDS011;12385;51.412;5.540;2022-10-31T01:28:53;21.63;;;11.43;;
24261;SDS011;12385;51.412;5.540;2022-10-31T01:31:21;22.20;;;11.15;;
24261;SDS011;12385;51.412;5.540;2022-10-31T01:33:49;24.20;;;13.18;;
24261;SDS011;12385;51.412;5.540;2022-10-31T01:36:22;22.90;;;12.35;;
24261;SDS011;12385;51.412;5.540;2022-10-31T01:38:48;23.98;;;13.23;;
24261;SDS011;12385;51.412;5.540;2022-10-31T01:41:16;24.35;;;13.18;;
24261;SDS011;12385;51.412;5.540;2022-10-31T01:43:44;29.63;;;14.60;;
24261;SDS011;12385;51.412;5.540;2022-10-31T01:46:10;30.77;;;15.05;;
24261;SDS011;12385;51.412;5.540;2022-10-31T01:48:36;31.40;;;14.52;;
24261;SDS011;12385;51.412;5.540;2022-10-31T01:51:03;22.80;;;12.82;;
24261;SDS011;12385;51.412;5.540;2022-10-31T01:53:30;24.30;;;13.18;;
24261;SDS011;12385;51.412;5.540;2022-10-31T01:55:56;22.73;;;12.50;;
24261;SDS011;12385;51.412;5.540;2022-10-31T01:58:24;20.85;;;11.65;;
24261;SDS011;12385;51.412;5.540;2022-10-31T02:00:53;27.60;;;13.50;;
24261;SDS011;12385;51.412;5.540;2022-10-31T02:03:24;21.10;;;12.73;;
24261;SDS011;12385;51.412;5.540;2022-10-31T02:05:51;25.70;;;13.43;;
24261;SDS011;12385;51.412;5.540;2022-10-31T02:10:51;22.13;;;13.02;;
24261;SDS011;12385;51.412;5.540;2022-10-31T02:13:17;24.70;;;12.57;;
24261;SDS011;12385;51.412;5.540;2022-10-31T02:15:46;24.00;;;12.80;;
24261;SDS011;12385;51.412;5.540;2022-10-31T02:18:18;22.83;;;12.85;;
24261;SDS011;12385;51.412;5.540;2022-10-31T02:31:50;32.17;;;17.35;;
24261;SDS011;12385;51.412;5.540;2022-10-31T02:34:38;38.47;;;17.17;;
24261;SDS011;12385;51.412;5.540;2022-10-31T02:37:13;34.00;;;19.80;;
24261;SDS011;12385;51.412;5.540;2022-10-31T02:39:56;32.50;;;18.80;;
24261;SDS011;12385;51.412;5.540;2022-10-31T02:42:31;32.15;;;17.73;;
24261;SDS011;12385;51.412;5.540;2022-10-31T02:45:48;43.55;;;20.65;;
24261;SDS011;12385;51.412;5.540;2022-10-31T02:48:01;37.67;;;19.27;;
24261;SDS011;12385;51.412;5.540;2022-10-31T02:50:32;40.38;;;20.42;;
24261;SDS011;12385;51.412;5.540;2022-10-31T02:53:02;39.63;;;20.55;;
24261;SDS011;12385;51.412;5.540;2022-10-31T02:57:58;35.03;;;20.58;;
24261;SDS011;12385;51.412;5.540;2022-10-31T03:00:27;46.75;;;22.20;;
24261;SDS011;12385;51.412;5.540;2022-10-31T03:03:02;43.05;;;20.55;;
24261;SDS011;12385;51.412;5.540;2022-10-31T03:11:08;42.65;;;24.00;;
24261;SDS011;12385;51.412;5.540;2022-10-31T03:19:05;46.42;;;23.98;;
24261;SDS011;12385;51.412;5.540;2022-10-31T03:24:11;56.50;;;26.75;;
24261;SDS011;12385;51.412;5.540;2022-10-31T03:26:40;45.72;;;24.90;;
24261;SDS011;12385;51.412;5.540;2022-10-31T03:29:10;43.30;;;24.08;;
24261;SDS011;12385;51.412;5.540;2022-10-31T03:31:43;42.90;;;21.33;;
24261;SDS011;12385;51.412;5.540;2022-10-31T03:34:25;44.78;;;23.25;;
24261;SDS011;12385;51.412;5.540;2022-10-31T03:36:55;44.80;;;23.55;;
24261;SDS011;12385;51.412;5.540;2022-10-31T03:39:25;45.22;;;25.08;;
24261;SDS011;12385;51.412;5.540;2022-10-31T03:41:56;50.13;;;25.77;;
24261;SDS011;12385;51.412;5.540;2022-10-31T03:44:44;47.72;;;25.63;;
24261;SDS011;12385;51.412;5.540;2022-10-31T03:47:21;58.00;;;28.13;;
24261;SDS011;12385;51.412;5.540;2022-10-31T03:49:47;45.90;;;25.45;;
24261;SDS011;12385;51.412;5.540;2022-10-31T03:52:27;56.45;;;26.85;;
24261;SDS011;12385;51.412;5.540;2022-10-31T03:54:59;56.15;;;26.55;;
24261;SDS011;12385;51.412;5.540;2022-10-31T03:57:43;47.95;;;25.60;;
24261;SDS011;12385;51.412;5.540;2022-10-31T04:00:17;46.90;;;24.02;;
24261;SDS011;12385;51.412;5.540;2022-10-31T04:02:58;44.47;;;23.92;;
24261;SDS011;12385;51.412;5.540;2022-10-31T04:05:34;45.45;;;24.52;;
24261;SDS011;12385;51.412;5.540;2022-10-31T04:08:02;44.92;;;23.20;;
24261;SDS011;12385;51.412;5.540;2022-10-31T04:10:32;40.80;;;23.42;;
24261;SDS011;12385;51.412;5.540;2022-10-31T04:13:01;53.03;;;24.95;;
24261;SDS011;12385;51.412;5.540;2022-10-31T04:15:32;38.75;;;21.95;;
24261;SDS011;12385;51.412;5.540;2022-10-31T04:17:59;37.80;;;22.33;;
24261;SDS011;12385;51.412;5.540;2022-10-31T04:20:33;42.17;;;23.23;;
24261;SDS011;12385;51.412;5.540;2022-10-31T04:23:03;39.55;;;21.65;;
24261;SDS011;12385;51.412;5.540;2022-10-31T04:25:30;37.60;;;21.50;;
24261;SDS011;12385;51.412;5.540;2022-10-31T04:27:55;40.10;;;21.20;;
24261;SDS011;12385;51.412;5.540;2022-10-31T04:30:21;35.47;;;20.63;;
24261;SDS011;12385;51.412;5.540;2022-10-31T04:32:47;38.40;;;22.45;;
24261;SDS011;12385;51.412;5.540;2022-10-31T04:35:13;41.00;;;23.05;;
24261;SDS011;12385;51.412;5.540;2022-10-31T04:37:39;37.03;;;22.10;;
24261;SDS011;12385;51.412;5.540;2022-10-31T04:40:05;42.78;;;23.08;;
24261;SDS011;12385;51.412;5.540;2022-10-31T04:42:31;42.58;;;23.85;;
24261;SDS011;12385;51.412;5.540;2022-10-31T04:44:57;45.05;;;25.58;;
24261;SDS011;12385;51.412;5.540;2022-10-31T04:47:22;45.92;;;22.95;;
24261;SDS011;12385;51.412;5.540;2022-10-31T04:49:48;41.58;;;24.15;;
24261;SDS011;12385;51.412;5.540;2022-10-31T04:52:14;45.90;;;24.73;;
24261;SDS011;12385;51.412;5.540;2022-10-31T04:54:39;41.72;;;24.80;;
24261;SDS011;12385;51.412;5.540;2022-10-31T04:57:05;46.28;;;25.88;;
24261;SDS011;12385;51.412;5.540;2022-10-31T04:59:31;59.50;;;27.35;;
24261;SDS011;12385;51.412;5.540;2022-10-31T05:01:56;45.35;;;25.05;;
24261;SDS011;12385;51.412;5.540;2022-10-31T05:04:22;49.13;;;25.25;;
24261;SDS011;12385;51.412;5.540;2022-10-31T05:06:48;49.95;;;25.48;;
24261;SDS011;12385;51.412;5.540;2022-10-31T05:09:13;48.13;;;24.38;;
24261;SDS011;12385;51.412;5.540;2022-10-31T05:11:39;41.47;;;23.73;;
24261;SDS011;12385;51.412;5.540;2022-10-31T05:14:05;43.65;;;24.95;;
24261;SDS011;12385;51.412;5.540;2022-10-31T05:16:30;40.85;;;22.25;;
24261;SDS011;12385;51.412;5.540;2022-10-31T05:18:56;42.25;;;22.25;;
24261;SDS011;12385;51.412;5.540;2022-10-31T05:21:23;42.83;;;24.60;;
24261;SDS011;12385;51.412;5.540;2022-10-31T05:23:49;51.58;;;25.73;;
24261;SDS011;12385;51.412;5.540;2022-10-31T05:26:14;48.47;;;24.90;;
24261;SDS011;12385;51.412;5.540;2022-10-31T05:28:40;54.63;;;25.85;;
24261;SDS011;12385;51.412;5.540;2022-10-31T05:31:05;46.50;;;25.73;;
24261;SDS011;12385;51.412;5.540;2022-10-31T05:33:31;51.40;;;26.58;;
24261;SDS011;12385;51.412;5.540;2022-10-31T05:35:56;35.97;;;22.38;;
24261;SDS011;12385;51.412;5.540;2022-10-31T05:38:22;42.75;;;23.73;;
24261;SDS011;12385;51.412;5.540;2022-10-31T05:40:47;39.15;;;22.20;;
24261;SDS011;12385;51.412;5.540;2022-10-31T05:43:13;39.20;;;22.27;;
24261;SDS011;12385;51.412;5.540;2022-10-31T05:45:39;38.08;;;22.55;;
24261;SDS011;12385;51.412;5.540;2022-10-31T05:48:04;45.70;;;23.50;;
24261;SDS011;12385;51.412;5.540;2022-10-31T05:50:30;38.72;;;22.70;;
24261;SDS011;12385;51.412;5.540;2022-10-31T05:52:57;40.58;;;23.55;;
24261;SDS011;12385;51.412;5.540;2022-10-31T05:55:24;41.58;;;24.08;;
24261;SDS011;12385;51.412;5.540;2022-10-31T05:57:51;41.13;;;23.98;;
24261;SDS011;12385;51.412;5.540;2022-10-31T06:00:17;44.70;;;23.67;;
24261;SDS011;12385;51.412;5.540;2022-10-31T06:02:43;45.40;;;24.33;;
24261;SDS011;12385;51.412;5.540;2022-10-31T06:05:09;38.83;;;23.20;;
24261;SDS011;12385;51.412;5.540;2022-10-31T06:07:34;44.53;;;23.98;;
24261;SDS011;12385;51.412;5.540;2022-10-31T06:10:01;39.75;;;22.90;;
24261;SDS011;12385;51.412;5.540;2022-10-31T06:12:28;34.97;;;20.77;;
24261;SDS011;12385;51.412;5.540;2022-10-31T06:14:54;36.70;;;21.10;;
24261;SDS011;12385;51.412;5.540;2022-10-31T06:17:20;36.75;;;22.15;;
24261;SDS011;12385;51.412;5.540;2022-10-31T06:19:45;37.13;;;21.27;;
24261;SDS011;12385;51.412;5.540;2022-10-31T06:22:11;35.70;;;22.15;;
24261;SDS011;12385;51.412;5.540;2022-10-31T06:24:40;41.03;;;23.15;;
24261;SDS011;12385;51.412;5.540;2022-10-31T06:27:05;38.90;;;24.10;;
24261;SDS011;12385;51.412;5.540;2022-10-31T06:29:31;37.40;;;24.35;;
24261;SDS011;12385;51.412;5.540;2022-10-31T06:31:57;40.15;;;24.23;;
24261;SDS011;12385;51.412;5.540;2022-10-31T06:34:22;42.33;;;24.08;;
24261;SDS011;12385;51.412;5.540;2022-10-31T06:36:48;42.50;;;24.80;;
24261;SDS011;12385;51.412;5.540;2022-10-31T06:39:14;42.30;;;25.60;;
24261;SDS011;12385;51.412;5.540;2022-10-31T06:41:40;44.15;;;24.67;;
24261;SDS011;12385;51.412;5.540;2022-10-31T06:44:06;35.72;;;22.50;;
24261;SDS011;12385;51.412;5.540;2022-10-31T06:46:33;48.17;;;25.92;;
24261;SDS011;12385;51.412;5.540;2022-10-31T06:48:59;38.92;;;21.75;;
24261;SDS011;12385;51.412;5.540;2022-10-31T06:51:25;33.90;;;20.92;;
24261;SDS011;12385;51.412;5.540;2022-10-31T06:53:50;36.28;;;20.70;;
24261;SDS011;12385;51.412;5.540;2022-10-31T06:56:16;40.03;;;22.40;;
24261;SDS011;12385;51.412;5.540;2022-10-31T06:58:41;40.60;;;22.65;;
24261;SDS011;12385;51.412;5.540;2022-10-31T07:01:07;34.95;;;21.10;;
24261;SDS011;12385;51.412;5.540;2022-10-31T07:03:33;36.85;;;20.88;;
24261;SDS011;12385;51.412;5.540;2022-10-31T07:05:58;35.60;;;21.98;;
24261;SDS011;12385;51.412;5.540;2022-10-31T07:08:24;42.97;;;23.17;;
24261;SDS011;12385;51.412;5.540;2022-10-31T07:10:51;42.40;;;24.10;;
24261;SDS011;12385;51.412;5.540;2022-10-31T07:13:18;47.00;;;24.40;;
24261;SDS011;12385;51.412;5.540;2022-10-31T07:15:49;35.85;;;21.38;;
24261;SDS011;12385;51.412;5.540;2022-10-31T07:18:15;33.28;;;20.55;;
24261;SDS011;12385;51.412;5.540;2022-10-31T07:20:40;36.72;;;21.63;;
24261;SDS011;12385;51.412;5.540;2022-10-31T07:23:07;40.78;;;22.55;;
24261;SDS011;12385;51.412;5.540;2022-10-31T07:25:37;33.85;;;22.13;;
24261;SDS011;12385;51.412;5.540;2022-10-31T07:28:03;37.55;;;24.13;;
24261;SDS011;12385;51.412;5.540;2022-10-31T07:30:29;35.40;;;23.58;;
24261;SDS011;12385;51.412;5.540;2022-10-31T07:32:55;37.05;;;24.08;;
24261;SDS011;12385;51.412;5.540;2022-10-31T07:35:21;37.15;;;24.23;;
24261;SDS011;12385;51.412;5.540;2022-10-31T07:37:49;34.00;;;23.92;;
24261;SDS011;12385;51.412;5.540;2022-10-31T07:40:15;32.85;;;22.48;;
24261;SDS011;12385;51.412;5.540;2022-10-31T07:42:43;34.17;;;22.77;;
24261;SDS011;12385;51.412;5.540;2022-10-31T07:45:17;39.35;;;24.40;;
24261;SDS011;12385;51.412;5.540;2022-10-31T07:47:44;37.13;;;22.70;;
24261;SDS011;12385;51.412;5.540;2022-10-31T07:50:15;37.15;;;26.40;;
24261;SDS011;12385;51.412;5.540;2022-10-31T07:52:43;42.30;;;27.30;;
24261;SDS011;12385;51.412;5.540;2022-10-31T07:55:09;40.47;;;27.27;;
24261;SDS011;12385;51.412;5.540;2022-10-31T07:57:36;48.15;;;29.92;;
24261;SDS011;12385;51.412;5.540;2022-10-31T08:00:12;46.00;;;29.05;;
24261;SDS011;12385;51.412;5.540;2022-10-31T08:02:37;46.33;;;29.73;;
24261;SDS011;12385;51.412;5.540;2022-10-31T08:05:03;43.45;;;29.83;;
24261;SDS011;12385;51.412;5.540;2022-10-31T08:07:35;44.80;;;30.35;;
24261;SDS011;12385;51.412;5.540;2022-10-31T08:10:02;49.88;;;30.63;;
24261;SDS011;12385;51.412;5.540;2022-10-31T08:12:28;46.92;;;30.48;;
24261;SDS011;12385;51.412;5.540;2022-10-31T08:14:53;42.95;;;29.67;;
24261;SDS011;12385;51.412;5.540;2022-10-31T08:17:19;48.17;;;33.33;;
24261;SDS011;12385;51.412;5.540;2022-10-31T08:19:45;54.08;;;34.05;;
24261;SDS011;12385;51.412;5.540;2022-10-31T08:22:11;51.88;;;35.15;;
24261;SDS011;12385;51.412;5.540;2022-10-31T08:24:36;59.78;;;36.85;;
24261;SDS011;12385;51.412;5.540;2022-10-31T08:27:02;58.88;;;35.30;;
24261;SDS011;12385;51.412;5.540;2022-10-31T08:29:27;53.50;;;34.97;;
24261;SDS011;12385;51.412;5.540;2022-10-31T08:31:53;54.25;;;35.67;;
24261;SDS011;12385;51.412;5.540;2022-10-31T08:34:18;55.78;;;35.05;;
24261;SDS011;12385;51.412;5.540;2022-10-31T08:36:44;58.25;;;34.55;;
24261;SDS011;12385;51.412;5.540;2022-10-31T08:39:11;56.08;;;35.00;;
24261;SDS011;12385;51.412;5.540;2022-10-31T08:41:37;54.75;;;35.05;;
24261;SDS011;12385;51.412;5.540;2022-10-31T08:44:02;58.55;;;36.28;;
24261;SDS011;12385;51.412;5.540;2022-10-31T08:46:28;65.43;;;37.92;;
24261;SDS011;12385;51.412;5.540;2022-10-31T08:48:53;62.45;;;38.75;;
24261;SDS011;12385;51.412;5.540;2022-10-31T08:51:19;61.65;;;38.38;;
24261;SDS011;12385;51.412;5.540;2022-10-31T08:53:44;67.13;;;39.80;;
24261;SDS011;12385;51.412;5.540;2022-10-31T08:56:10;68.22;;;42.00;;
24261;SDS011;12385;51.412;5.540;2022-10-31T08:58:36;74.75;;;42.13;;
24261;SDS011;12385;51.412;5.540;2022-10-31T09:01:01;66.20;;;42.65;;
24261;SDS011;12385;51.412;5.540;2022-10-31T09:03:29;77.82;;;43.55;;
24261;SDS011;12385;51.412;5.540;2022-10-31T09:05:58;77.57;;;45.58;;
24261;SDS011;12385;51.412;5.540;2022-10-31T09:08:25;76.78;;;43.95;;
24261;SDS011;12385;51.412;5.540;2022-10-31T09:10:51;84.70;;;46.65;;
24261;SDS011;12385;51.412;5.540;2022-10-31T09:13:23;79.38;;;43.95;;
24261;SDS011;12385;51.412;5.540;2022-10-31T09:15:50;80.28;;;45.45;;
24261;SDS011;12385;51.412;5.540;2022-10-31T09:18:17;72.85;;;42.13;;
24261;SDS011;12385;51.412;5.540;2022-10-31T09:20:45;79.30;;;42.08;;
24261;SDS011;12385;51.412;5.540;2022-10-31T09:23:22;76.18;;;43.47;;
24261;SDS011;12385;51.412;5.540;2022-10-31T09:25:48;81.28;;;43.35;;
24261;SDS011;12385;51.412;5.540;2022-10-31T09:28:20;72.15;;;42.35;;
24261;SDS011;12385;51.412;5.540;2022-10-31T09:30:48;76.50;;;42.92;;
24261;SDS011;12385;51.412;5.540;2022-10-31T09:33:16;76.10;;;40.65;;
24261;SDS011;12385;51.412;5.540;2022-10-31T09:35:42;73.22;;;41.03;;
24261;SDS011;12385;51.412;5.540;2022-10-31T09:38:09;70.70;;;39.90;;
24261;SDS011;12385;51.412;5.540;2022-10-31T09:40:36;77.13;;;40.97;;
24261;SDS011;12385;51.412;5.540;2022-10-31T09:50:46;75.78;;;39.78;;
24261;SDS011;12385;51.412;5.540;2022-10-31T09:53:22;78.57;;;40.97;;
24261;SDS011;12385;51.412;5.540;2022-10-31T09:55:49;78.57;;;39.95;;
24261;SDS011;12385;51.412;5.540;2022-10-31T09:58:18;77.43;;;40.72;;
24261;SDS011;12385;51.412;5.540;2022-10-31T10:00:46;77.35;;;39.70;;
24261;SDS011;12385;51.412;5.540;2022-10-31T10:03:33;80.22;;;42.05;;
24261;SDS011;12385;51.412;5.540;2022-10-31T10:08:38;82.45;;;41.78;;
24261;SDS011;12385;51.412;5.540;2022-10-31T10:30:24;72.13;;;36.33;;
24261;SDS011;12385;51.412;5.540;2022-10-31T10:32:57;62.72;;;36.05;;
24261;SDS011;12385;51.412;5.540;2022-10-31T10:35:29;70.03;;;36.47;;
24261;SDS011;12385;51.412;5.540;2022-10-31T10:40:43;64.13;;;34.35;;
24261;SDS011;12385;51.412;5.540;2022-10-31T10:43:17;62.47;;;34.05;;
24261;SDS011;12385;51.412;5.540;2022-10-31T10:49:16;68.60;;;32.33;;
24261;SDS011;12385;51.412;5.540;2022-10-31T10:51:58;57.03;;;32.13;;
24261;SDS011;12385;51.412;5.540;2022-10-31T10:55:05;60.70;;;33.03;;
24261;SDS011;12385;51.412;5.540;2022-10-31T10:58:13;61.55;;;32.42;;
24261;SDS011;12385;51.412;5.540;2022-10-31T11:00:37;57.80;;;30.90;;
24261;SDS011;12385;51.412;5.540;2022-10-31T11:03:05;57.70;;;30.98;;
24261;SDS011;12385;51.412;5.540;2022-10-31T11:08:04;54.58;;;30.75;;
24261;SDS011;12385;51.412;5.540;2022-10-31T11:10:31;64.85;;;31.30;;
24261;SDS011;12385;51.412;5.540;2022-10-31T11:13:20;57.70;;;31.63;;
24261;SDS011;12385;51.412;5.540;2022-10-31T11:15:53;52.78;;;30.45;;
24261;SDS011;12385;51.412;5.540;2022-10-31T11:18:26;54.05;;;30.35;;
24261;SDS011;12385;51.412;5.540;2022-10-31T11:20:55;54.00;;;30.45;;
24261;SDS011;12385;51.412;5.540;2022-10-31T11:23:23;51.13;;;30.30;;
24261;SDS011;12385;51.412;5.540;2022-10-31T11:28:22;54.53;;;29.63;;
24261;SDS011;12385;51.412;5.540;2022-10-31T11:30:49;53.47;;;28.30;;
24261;SDS011;12385;51.412;5.540;2022-10-31T11:33:31;50.85;;;27.52;;
24261;SDS011;12385;51.412;5.540;2022-10-31T11:38:31;52.97;;;28.67;;
24261;SDS011;12385;51.412;5.540;2022-10-31T11:43:35;48.92;;;28.67;;
24261;SDS011;12385;51.412;5.540;2022-10-31T11:46:10;51.40;;;28.42;;
24261;SDS011;12385;51.412;5.540;2022-10-31T11:48:40;48.75;;;26.88;;
24261;SDS011;12385;51.412;5.540;2022-10-31T11:51:24;57.13;;;27.58;;
24261;SDS011;12385;51.412;5.540;2022-10-31T11:53:54;50.05;;;26.00;;
24261;SDS011;12385;51.412;5.540;2022-10-31T11:56:23;47.07;;;24.93;;
24261;SDS011;12385;51.412;5.540;2022-10-31T11:58:59;45.53;;;23.60;;
24261;SDS011;12385;51.412;5.540;2022-10-31T12:01:29;41.25;;;21.95;;
24261;SDS011;12385;51.412;5.540;2022-10-31T12:04:09;40.38;;;22.35;;
24261;SDS011;12385;51.412;5.540;2022-10-31T12:06:41;40.85;;;21.80;;
24261;SDS011;12385;51.412;5.540;2022-10-31T12:09:17;49.03;;;21.83;;
24261;SDS011;12385;51.412;5.540;2022-10-31T12:23:09;49.00;;;20.58;;
24261;SDS011;12385;51.412;5.540;2022-10-31T12:28:48;38.13;;;19.55;;
24261;SDS011;12385;51.412;5.540;2022-10-31T12:31:36;39.95;;;18.27;;
24261;SDS011;12385;51.412;5.540;2022-10-31T12:40:29;38.10;;;16.98;;
24261;SDS011;12385;51.412;5.540;2022-10-31T12:43:36;39.35;;;15.52;;
24261;SDS011;12385;51.412;5.540;2022-10-31T12:46:22;33.42;;;16.27;;
24261;SDS011;12385;51.412;5.540;2022-10-31T12:49:07;30.90;;;15.02;;
24261;SDS011;12385;51.412;5.540;2022-10-31T12:52:02;28.75;;;14.52;;
24261;SDS011;12385;51.412;5.540;2022-10-31T12:54:39;29.45;;;14.80;;
24261;SDS011;12385;51.412;5.540;2022-10-31T12:57:23;29.80;;;13.98;;
24261;SDS011;12385;51.412;5.540;2022-10-31T13:07:49;33.55;;;13.80;;
24261;SDS011;12385;51.412;5.540;2022-10-31T13:10:45;31.23;;;14.23;;
24261;SDS011;12385;51.412;5.540;2022-10-31T13:13:19;31.20;;;14.60;;
24261;SDS011;12385;51.412;5.540;2022-10-31T13:15:55;31.40;;;15.13;;
24261;SDS011;12385;51.412;5.540;2022-10-31T13:18:27;36.03;;;16.33;;
24261;SDS011;12385;51.412;5.540;2022-10-31T13:21:01;35.08;;;16.02;;
24261;SDS011;12385;51.412;5.540;2022-10-31T13:23:33;32.97;;;16.00;;
24261;SDS011;12385;51.412;5.540;2022-10-31T13:26:08;29.15;;;16.40;;
24261;SDS011;12385;51.412;5.540;2022-10-31T13:28:48;35.05;;;15.10;;
24261;SDS011;12385;51.412;5.540;2022-10-31T13:31:40;29.50;;;15.88;;
24261;SDS011;12385;51.412;5.540;2022-10-31T13:45:23;32.75;;;14.93;;
24261;SDS011;12385;51.412;5.540;2022-10-31T13:51:00;27.80;;;13.80;;
24261;SDS011;12385;51.412;5.540;2022-10-31T13:53:38;32.53;;;14.43;;
24261;SDS011;12385;51.412;5.540;2022-10-31T13:56:17;28.38;;;13.32;;
24261;SDS011;12385;51.412;5.540;2022-10-31T14:01:25;23.52;;;13.13;;
24261;SDS011;12385;51.412;5.540;2022-10-31T14:03:58;25.38;;;13.50;;
24261;SDS011;12385;51.412;5.540;2022-10-31T14:06:34;24.88;;;13.40;;
24261;SDS011;12385;51.412;5.540;2022-10-31T14:09:05;29.17;;;14.52;;
24261;SDS011;12385;51.412;5.540;2022-10-31T14:11:45;26.58;;;13.23;;
24261;SDS011;12385;51.412;5.540;2022-10-31T14:14:12;27.35;;;12.75;;
24261;SDS011;12385;51.412;5.540;2022-10-31T14:16:39;29.50;;;12.82;;
24261;SDS011;12385;51.412;5.540;2022-10-31T14:19:18;26.98;;;13.02;;
24261;SDS011;12385;51.412;5.540;2022-10-31T14:21:46;30.27;;;12.32;;
24261;SDS011;12385;51.412;5.540;2022-10-31T14:24:31;31.13;;;12.68;;
24261;SDS011;12385;51.412;5.540;2022-10-31T14:27:00;30.60;;;13.73;;
24261;SDS011;12385;51.412;5.540;2022-10-31T14:29:32;26.35;;;12.70;;
24261;SDS011;12385;51.412;5.540;2022-10-31T14:40:39;24.88;;;12.70;;
24261;SDS011;12385;51.412;5.540;2022-10-31T14:57:02;28.02;;;12.10;;
24261;SDS011;12385;51.412;5.540;2022-10-31T14:59:32;27.42;;;12.32;;
24261;SDS011;12385;51.412;5.540;2022-10-31T15:02:36;20.08;;;11.35;;
24261;SDS011;12385;51.412;5.540;2022-10-31T15:05:18;19.90;;;10.75;;
24261;SDS011;12385;51.412;5.540;2022-10-31T15:07:52;25.00;;;11.75;;
24261;SDS011;12385;51.412;5.540;2022-10-31T15:10:22;22.67;;;11.13;;
24261;SDS011;12385;51.412;5.540;2022-10-31T15:13:07;24.27;;;11.52;;
24261;SDS011;12385;51.412;5.540;2022-10-31T15:15:35;27.05;;;11.15;;
24261;SDS011;12385;51.412;5.540;2022-10-31T15:18:03;22.63;;;10.85;;
24261;SDS011;12385;51.412;5.540;2022-10-31T15:20:30;28.38;;;11.57;;
24261;SDS011;12385;51.412;5.540;2022-10-31T15:23:41;28.73;;;11.55;;
24261;SDS011;12385;51.412;5.540;2022-10-31T15:26:00;21.58;;;10.80;;
24261;SDS011;12385;51.412;5.540;2022-10-31T15:28:28;25.25;;;11.02;;
24261;SDS011;12385;51.412;5.540;2022-10-31T15:30:58;18.38;;;10.18;;
24261;SDS011;12385;51.412;5.540;2022-10-31T15:33:26;20.52;;;10.00;;
24261;SDS011;12385;51.412;5.540;2022-10-31T15:36:05;25.92;;;9.88;;
24261;SDS011;12385;51.412;5.540;2022-10-31T15:38:42;23.45;;;10.30;;
24261;SDS011;12385;51.412;5.540;2022-10-31T15:41:19;22.45;;;10.15;;
24261;SDS011;12385;51.412;5.540;2022-10-31T15:49:54;19.08;;;9.27;;
24261;SDS011;12385;51.412;5.540;2022-10-31T15:52:31;24.63;;;9.00;;
24261;SDS011;12385;51.412;5.540;2022-10-31T15:57:40;24.52;;;9.35;;
24261;SDS011;12385;51.412;5.540;2022-10-31T16:00:22;18.48;;;8.95;;
24261;SDS011;12385;51.412;5.540;2022-10-31T16:02:48;25.55;;;8.60;;
24261;SDS011;12385;51.412;5.540;2022-10-31T16:05:15;26.52;;;9.02;;
24261;SDS011;12385;51.412;5.540;2022-10-31T16:07:52;16.30;;;8.85;;
24261;SDS011;12385;51.412;5.540;2022-10-31T16:10:24;20.33;;;8.10;;
24261;SDS011;12385;51.412;5.540;2022-10-31T16:12:50;26.75;;;8.70;;
24261;SDS011;12385;51.412;5.540;2022-10-31T16:15:17;20.83;;;8.52;;
24261;SDS011;12385;51.412;5.540;2022-10-31T16:17:46;29.73;;;8.70;;
24261;SDS011;12385;51.412;5.540;2022-10-31T16:20:21;25.20;;;9.10;;
24261;SDS011;12385;51.412;5.540;2022-10-31T16:22:50;27.55;;;8.65;;
24261;SDS011;12385;51.412;5.540;2022-10-31T16:25:21;23.17;;;8.98;;
24261;SDS011;12385;51.412;5.540;2022-10-31T16:27:54;25.27;;;8.45;;
24261;SDS011;12385;51.412;5.540;2022-10-31T16:30:35;21.50;;;8.63;;
24261;SDS011;12385;51.412;5.540;2022-10-31T16:33:19;20.77;;;8.98;;
24261;SDS011;12385;51.412;5.540;2022-10-31T16:35:46;16.02;;;8.40;;
24261;SDS011;12385;51.412;5.540;2022-10-31T16:38:11;18.13;;;8.38;;
24261;SDS011;12385;51.412;5.540;2022-10-31T16:40:39;23.83;;;8.40;;
24261;SDS011;12385;51.412;5.540;2022-10-31T16:43:07;23.08;;;8.68;;
24261;SDS011;12385;51.412;5.540;2022-10-31T16:45:36;17.80;;;8.75;;
24261;SDS011;12385;51.412;5.540;2022-10-31T16:48:11;20.08;;;8.93;;
24261;SDS011;12385;51.412;5.540;2022-10-31T16:50:40;26.13;;;9.38;;
24261;SDS011;12385;51.412;5.540;2022-10-31T16:53:07;22.10;;;8.98;;
24261;SDS011;12385;51.412;5.540;2022-10-31T16:55:40;20.13;;;8.40;;
24261;SDS011;12385;51.412;5.540;2022-10-31T16:58:21;17.25;;;7.90;;
24261;SDS011;12385;51.412;5.540;2022-10-31T17:00:50;24.98;;;8.57;;
24261;SDS011;12385;51.412;5.540;2022-10-31T17:03:17;19.85;;;8.32;;
24261;SDS011;12385;51.412;5.540;2022-10-31T17:05:42;19.75;;;8.60;;
24261;SDS011;12385;51.412;5.540;2022-10-31T17:08:08;26.10;;;8.23;;
24261;SDS011;12385;51.412;5.540;2022-10-31T17:10:34;24.45;;;8.13;;
24261;SDS011;12385;51.412;5.540;2022-10-31T17:13:01;22.55;;;8.05;;